Cassidy Curve, MT

3:06 AM MST on January 18, 2017 (GMT -0700)
MSRYM8 | | Change Station

Elev 4555 ft 48.74 °N, 113.43 °W | Updated 2 minutes ago

Overcast
Overcast
42.0 °F
Feels Like 42 °F
N
3.0
Wind Variable Wind from SW
Gusts 33.0 mph

Today
High -- | Low -- °F
--% Chance of Precip.
Yesterday
High -- | Low -- °F
Precip. -- in
Pressure 29.57 in
Visibility 10.0 miles
Clouds Few 6500 ft
Windchill 42 °F
Dew Point 27 °F
Humidity 55%
Rainfall 0.00 in
Snow Depth Not available.
8:19 AM 5:10 PM
Waning Gibbous, 64% visible
METAR KCTB 180956Z AUTO 22007KT 10SM FEW065 08/M04 A2957 RMK AO2 SLP012 T00781044
Pressure 29.57 in
Visibility 10.0 miles
Clouds Few 6500 ft
Windchill 42 °F
Dew Point 27 °F
Humidity 55%
Rainfall 0.00 in
Snow Depth Not available.
8:19 AM 5:10 PM
Waning Gibbous, 64% visible
METAR KCTB 180956Z AUTO 22007KT 10SM FEW065 08/M04 A2957 RMK AO2 SLP012 T00781044

Get Your Daily Forecast Email!

Thanks for signing up!

Be on the lookout for a verification email in your inbox.

You'll start receiving the daily forecast at 8 AM.

×

10-Day Weather Forecast

Almanac

Astronomy

Jan. 18, 2017 Rise Set
Actual Time
Civil Twilight
Nautical Twilight
Astronomical Twilight
Moon
Length of Visible Light
Length of Day
Tomorrow will be .
, % of the Moon is Illuminated

Today's Extremes

State Highs State Lows

Community

WunderPhotos

Upload Photos

1,962,540 photos uploaded!

WunderBlog® & News

Nearby

Air Quality

  Air Quality AQ Index Pollutant
Not available.

Snow Depth

Station Depth Elevation

Earthquake Activity

City Distance Mag. Time & Date
Minimum magnitude displayed is 2.5.

Coastal Water Temperatures

Place Temperature

Stations

Nearby Weather Stations

Station Location Temp. Windchill Dew Point Humidity Wind Precip. Elev Updated Type
                   

Watches & Warnings

There are currently no watches in effect.